• Join FlightAware (Why Join?)
  • Login
  • US Flag 
09:16PM EDT


 

Airport Tracker/Info


-or-


 

Live Flight TrackerFlight Track Log ✈ TCF3494 ✈ 28-Apr-2013 ✈ KORD - KLGA

Flight Track Log - Related Links

Times and Time Zones

All times are in EDT time to prevent confusion due to time zone crossing. See the TCF3494 flight status page for this flight to view local times or setup timezone preferences in your user account.

Time Position Orientation Groundspeed Altitude Reporting Facility
EDT Latitude Longitude Course Direction KTS MPH feet Rate Location/Type
04:38PM 41.9667 -87.8667 90° East 164 189 1,800  Level Chicago TRACON
04:39PM 41.9500 -87.8000 109° East 229 264 3,000 2,100 Climbing Chicago TRACON
04:40PM 41.9594 -87.4608 98° East  Level FlightAware Approximate
04:40PM 41.9500 -87.7000 90° East 276 318 5,900  Level Chicago TRACON
04:41PM 41.9464 -87.3153 95° East  Level FlightAware Approximate
04:42PM 41.9359 -87.1694 95° East  Level FlightAware Approximate
04:42PM 41.9556 -87.4875 88° East 293 337 12,100  Level Chicago Center
04:43PM 41.9333 -87.0231 90° East  Level FlightAware Approximate
04:43PM 41.9528 -87.3472 91° East 312 359 15,200  Level Chicago Center
04:44PM 41.9514 -87.2225 91° East 327 376 17,200 2,100 Climbing Chicago Center
04:45PM 41.9469 -87.0872 92° East 353 406 19,600 2,220 Climbing Chicago Center
04:46PM 41.9489 -86.9497 89° East 368 423 21,800 1,980 Climbing Chicago Center
04:47PM 41.9506 -86.8083 89° East 376 433 23,700 1,740 Climbing Chicago Center
04:48PM 41.9506 -86.6583 90° East 390 449 25,400 1,680 Climbing Chicago Center
04:49PM 41.9533 -86.4775 89° East 403 464 27,200 1,500 Climbing Chicago Center
04:50PM 41.9558 -86.3222 89° East 414 476 28,600 1,260 Climbing Chicago Center
04:51PM 41.9519 -86.1647 92° East 421 484 29,900 1,140 Climbing Chicago Center
04:52PM 41.9356 -86.0069 98° East 427 491 31,000 960 Climbing Chicago Center
04:53PM 41.9211 -85.8467 97° East 431 496 32,000 1,020 Climbing Chicago Center
04:54PM 41.9056 -85.6858 97° East 432 497 33,200 1,140 Climbing Chicago Center
04:56PM 41.8906 -85.5269 97° East 427 491 34,400 840 Climbing Chicago Center
04:57PM 41.8722 -85.3353 97° East 427 491 35,000 240 Climbing Chicago Center
04:58PM 41.8564 -85.1747 97° East 430 495 35,000  Level Chicago Center
04:58PM 41.8497 -85.1108 98° East 434 499 35,000  Level Cleveland Center
04:59PM 41.8350 -84.9508 97° East 447 514 35,000  Level Cleveland Center
05:00PM 41.8181 -84.7936 98° East 442 509 35,000  Level Cleveland Center
05:01PM 41.8050 -84.6339 96° East 437 503 35,000  Level Cleveland Center
05:02PM 41.7833 -84.4736 100° East 432 497 35,000  Level Cleveland Center
05:03PM 41.7803 -84.3175 91° East 432 497 35,000  Level Cleveland Center
05:04PM 41.7756 -84.1417 92° East 427 491 35,000  Level Cleveland Center
05:05PM 41.7722 -83.9772 92° East 427 491 35,000  Level Cleveland Center
05:06PM 41.7725 -83.8158 90° East 427 491 35,000  Level Cleveland Center
05:07PM 41.7708 -83.6514 91° East 427 491 35,000  Level Cleveland Center
05:08PM 41.7606 -83.4894 95° East 427 491 35,000  Level Cleveland Center
05:09PM 41.7478 -83.3247 96° East 438 504 35,000  Level Cleveland Center
05:10PM 41.7308 -83.1625 98° East 438 504 35,000  Level Cleveland Center
05:11PM 41.7156 -83.0006 97° East 438 504 35,000  Level Cleveland Center
05:12PM 41.7000 -82.8414 97° East 438 504 35,000  Level Cleveland Center
05:13PM 41.6822 -82.6822 98° East 438 504 35,000  Level Cleveland Center
05:14PM 41.6664 -82.5233 98° East 438 504 35,000  Level Cleveland Center
05:15PM 41.6500 -82.3617 98° East 433 498 35,000  Level Cleveland Center
05:16PM 41.6339 -82.2000 98° East 433 498 35,000  Level Cleveland Center
05:17PM 41.6150 -82.0411 99° East 433 498 35,000  Level Cleveland Center
05:18PM 41.5981 -81.8908 99° East 438 504 35,000  Level Cleveland Center
05:19PM 41.5811 -81.7242 98° East 445 512 35,000  Level Cleveland Center
05:20PM 41.5619 -81.5544 99° East 450 518 35,000  Level Cleveland Center
05:21PM 41.5403 -81.3739 99° East 450 518 35,000  Level Cleveland Center
05:22PM 41.5206 -81.2072 99° East 450 518 35,000  Level Cleveland Center
05:23PM 41.5047 -81.0378 97° East 450 518 35,000  Level Cleveland Center
05:24PM 41.4906 -80.8658 96° East 460 529 35,000  Level Cleveland Center
05:25PM 41.4764 -80.6967 96° East 469 540 35,000  Level Cleveland Center
05:26PM 41.4597 -80.5278 97° East 463 533 35,000  Level Cleveland Center
05:27PM 41.4428 -80.3644 98° East 463 533 35,000  Level Cleveland Center
05:28PM 41.4319 -80.2119 95° East 463 533 35,000  Level Cleveland Center
05:29PM 41.4147 -80.0489 98° East 453 521 35,000  Level Cleveland Center
05:30PM 41.3969 -79.8717 98° East 448 516 35,000  Level Cleveland Center
05:31PM 41.3583 -79.7172 108° East 435 501 35,000  Level Cleveland Center
05:32PM 41.2867 -79.6133 133° Southeast 419 482 35,000  Level Cleveland Center
05:33PM 41.2128 -79.4956 130° Southeast 419 482 35,000  Level Cleveland Center
05:34PM 41.1386 -79.3728 129° Southeast 419 482 35,000  Level Cleveland Center
05:35PM 41.1158 -79.2022 100° East 424 488 35,000  Level Cleveland Center
05:36PM 41.1342 -79.0144 83° East 469 540 35,000  Level Cleveland Center
05:37PM 41.1522 -78.8183 83° East 497 572 35,000  Level Cleveland Center
05:38PM 41.1719 -78.6219 82° East 520 598 35,000 -480 Level Cleveland Center
05:39PM 41.1914 -78.4336 82° East 526 605 34,100 -900 Descending Cleveland Center
05:40PM 41.1969 -78.3381 86° East 519 597 33,600 -900 Descending New York Center
05:41PM 41.2106 -78.1519 84° East 512 589 32,800 -900 Descending New York Center
05:42PM 41.1942 -77.9789 97° East 500 575 31,900 -900 Descending New York Center
05:43PM 41.1731 -77.8114 99° East 472 543 31,000 -1,560 Descending New York Center
05:44PM 41.1514 -77.6464 100° East 467 537 28,800 -2,040 Descending New York Center
05:45PM 41.1333 -77.4875 99° East 447 514 27,000 -900 Descending New York Center
05:46PM 41.1069 -77.3278 102° East 441 507 27,000 -360 Level New York Center
05:47PM 41.0764 -77.1625 104° East 441 507 26,300 -540 Descending New York Center
05:48PM 41.0497 -76.9975 102° East 449 517 26,000 -420 Descending New York Center
05:49PM 41.0228 -76.8356 102° East 455 524 25,500 -1,080 Descending New York Center
05:50PM 40.9936 -76.6708 103° East 455 524 23,900 -1,860 Descending New York Center
05:51PM 40.9658 -76.5144 103° East 455 524 21,800 -2,100 Descending New York Center
05:52PM 40.9381 -76.3556 103° East 450 518 19,700 -2,040 Descending New York Center
05:53PM 40.9100 -76.1967 103° East 420 483 17,800 -1,800 Descending New York Center
05:54PM 40.8800 -76.0761 108° East 398 458 16,100 -1,620 Descending New York Center
05:55PM 40.8447 -75.9308 108° East 380 437 14,700 -1,320 Descending New York Center
05:56PM 40.8147 -75.8078 108° East 370 426 13,500 -960 Descending New York Center
05:57PM 40.7861 -75.6933 108° East 364 419 12,900 -360 Descending New York Center
05:58PM 40.7558 -75.5706 108° East 358 412 12,900  Level New York Center
05:59PM 40.7111 -75.4361 114° Southeast 358 412 12,900  Level New York Center
06:00PM 40.6700 -75.3156 114° Southeast 358 412 12,900 -60 Level New York Center
06:01PM 40.6344 -75.2067 113° Southeast 358 412 12,800 -1,140 Descending New York Center
06:02PM 40.5914 -75.0781 114° Southeast 358 412 10,700 -1,440 Descending New York Center
06:03PM 40.5539 -74.9611 113° Southeast 353 406 9,900 -360 Descending New York Center
06:04PM 40.5206 -74.8444 111° Southeast 348 400 10,000 60 Climbing New York Center
06:04PM 40.5000 -74.7833 114° Southeast 344 396 10,000  Level New York TRACON
06:05PM 40.4667 -74.6667 111° Southeast 348 400 10,000  Level New York TRACON
06:06PM 40.4333 -74.5500 111° Southeast 348 400 10,000 -300 Level New York TRACON
06:07PM 40.4500 -74.4333 79° East 297 342 9,400 -1,080 Descending New York TRACON
06:08PM 40.4833 -74.3500 62° Northeast 279 321 7,900 -1,200 Descending New York TRACON
06:09PM 40.5000 -74.2500 78° East 274 315 7,000 -1,320 Descending New York TRACON
06:10PM 40.5333 -74.1500 66° East 275 316 5,300 -1,500 Descending New York TRACON
06:11PM 40.5833 -74.0833 45° Northeast 273 314 4,000 -660 Descending New York TRACON
06:12PM 40.6500 -74.0500 21° North 276 318 4,000  Level New York TRACON
06:13PM 40.7167 -74.0167 21° North 234 269 4,000  Level New York TRACON
06:14PM 40.7833 -74.0000 11° North 236 272 4,000 -540 Level New York TRACON
06:15PM 40.8333 -73.9667 27° Northeast 228 262 3,000 -540 Descending New York TRACON
06:16PM 40.8833 -73.9167 37° Northeast 201 231 3,000 -120 Level New York TRACON
06:17PM 40.9167 -73.8667 49° Northeast 211 243 2,800 -540 Descending New York TRACON
06:18PM 40.9000 -73.8000 108° East 177 204 2,000 -540 Descending New York TRACON
06:19PM 40.8667 -73.8167 201° Southwest 162 186 1,800 -540 Descending New York TRACON
06:20PM 40.8333 -73.8333 201° Southwest 140 161 1,000 -840 Descending New York TRACON